Aviation Digital Data Service (ADDS)

Output produced by METARs form (1836 UTC 28 June 2016)
found at http://aviationweather.gov/adds/metars/
 
KBPT 281808Z 12012KT 3SM VCTS -RA BKN035 OVC048 28/25 A3000 RMK AO2 LTG DSNT E-SW RAB1757 P0009 T02780250